sensor_id;sensor_type;location;lat;lon;timestamp;temperature;humidity
51855;DHT22;37895;53.240;6.572;2023-12-07T00:00:50;2.90;99.90
51855;DHT22;37895;53.240;6.572;2023-12-07T00:03:15;3.00;99.90
51855;DHT22;37895;53.240;6.572;2023-12-07T00:05:41;3.60;99.90
51855;DHT22;37895;53.240;6.572;2023-12-07T00:08:10;3.60;99.90
51855;DHT22;37895;53.240;6.572;2023-12-07T00:10:36;2.90;99.90
51855;DHT22;37895;53.240;6.572;2023-12-07T00:13:01;2.90;99.90
51855;DHT22;37895;53.240;6.572;2023-12-07T00:15:27;2.90;99.90
51855;DHT22;37895;53.240;6.572;2023-12-07T00:17:53;3.00;99.90
51855;DHT22;37895;53.240;6.572;2023-12-07T00:20:18;3.10;99.90
51855;DHT22;37895;53.240;6.572;2023-12-07T00:22:44;2.90;99.90
51855;DHT22;37895;53.240;6.572;2023-12-07T00:25:10;3.80;99.90
51855;DHT22;37895;53.240;6.572;2023-12-07T00:27:35;2.90;99.90
51855;DHT22;37895;53.240;6.572;2023-12-07T00:30:01;3.50;99.90
51855;DHT22;37895;53.240;6.572;2023-12-07T00:32:26;2.90;99.90
51855;DHT22;37895;53.240;6.572;2023-12-07T00:34:53;2.90;99.90
51855;DHT22;37895;53.240;6.572;2023-12-07T00:37:18;2.90;99.90
51855;DHT22;37895;53.240;6.572;2023-12-07T00:39:44;3.50;99.90
51855;DHT22;37895;53.240;6.572;2023-12-07T00:42:11;2.90;99.90
51855;DHT22;37895;53.240;6.572;2023-12-07T00:44:40;2.90;99.90
51855;DHT22;37895;53.240;6.572;2023-12-07T00:47:06;2.90;99.90
51855;DHT22;37895;53.240;6.572;2023-12-07T00:49:32;3.00;99.90
51855;DHT22;37895;53.240;6.572;2023-12-07T00:51:57;2.90;99.90
51855;DHT22;37895;53.240;6.572;2023-12-07T00:54:23;2.90;99.90
51855;DHT22;37895;53.240;6.572;2023-12-07T00:56:49;2.90;99.90
51855;DHT22;37895;53.240;6.572;2023-12-07T00:59:14;3.00;99.90
51855;DHT22;37895;53.240;6.572;2023-12-07T01:01:40;3.50;99.90
51855;DHT22;37895;53.240;6.572;2023-12-07T01:04:05;2.90;99.90
51855;DHT22;37895;53.240;6.572;2023-12-07T01:06:31;2.90;99.90
51855;DHT22;37895;53.240;6.572;2023-12-07T01:08:57;2.90;99.90
51855;DHT22;37895;53.240;6.572;2023-12-07T01:11:23;3.00;99.90
51855;DHT22;37895;53.240;6.572;2023-12-07T01:13:48;3.10;99.90
51855;DHT22;37895;53.240;6.572;2023-12-07T01:16:14;3.10;99.90
51855;DHT22;37895;53.240;6.572;2023-12-07T01:18:40;3.10;99.90
51855;DHT22;37895;53.240;6.572;2023-12-07T01:21:05;2.90;99.90
51855;DHT22;37895;53.240;6.572;2023-12-07T01:23:31;2.90;99.90
51855;DHT22;37895;53.240;6.572;2023-12-07T01:25:57;2.80;99.90
51855;DHT22;37895;53.240;6.572;2023-12-07T01:28:23;2.80;99.90
51855;DHT22;37895;53.240;6.572;2023-12-07T01:30:48;3.10;99.90
51855;DHT22;37895;53.240;6.572;2023-12-07T01:33:14;2.80;99.90
51855;DHT22;37895;53.240;6.572;2023-12-07T01:35:40;2.80;99.90
51855;DHT22;37895;53.240;6.572;2023-12-07T01:38:06;2.80;99.90
51855;DHT22;37895;53.240;6.572;2023-12-07T01:40:32;2.80;99.90
51855;DHT22;37895;53.240;6.572;2023-12-07T01:42:57;2.80;99.90
51855;DHT22;37895;53.240;6.572;2023-12-07T01:45:23;2.80;99.90
51855;DHT22;37895;53.240;6.572;2023-12-07T01:47:50;3.40;99.90
51855;DHT22;37895;53.240;6.572;2023-12-07T01:50:17;2.80;99.90
51855;DHT22;37895;53.240;6.572;2023-12-07T01:52:45;2.80;99.90
51855;DHT22;37895;53.240;6.572;2023-12-07T01:55:12;3.00;99.90
51855;DHT22;37895;53.240;6.572;2023-12-07T01:57:38;3.90;99.90
51855;DHT22;37895;53.240;6.572;2023-12-07T02:00:05;2.80;99.90
51855;DHT22;37895;53.240;6.572;2023-12-07T02:02:32;2.80;99.90
51855;DHT22;37895;53.240;6.572;2023-12-07T02:04:58;2.80;99.90
51855;DHT22;37895;53.240;6.572;2023-12-07T02:07:23;3.20;99.90
51855;DHT22;37895;53.240;6.572;2023-12-07T02:09:49;2.80;99.90
51855;DHT22;37895;53.240;6.572;2023-12-07T02:12:15;2.80;99.90
51855;DHT22;37895;53.240;6.572;2023-12-07T02:14:41;2.80;99.90
51855;DHT22;37895;53.240;6.572;2023-12-07T02:17:18;2.80;99.90
51855;DHT22;37895;53.240;6.572;2023-12-07T02:20:00;2.80;99.90
51855;DHT22;37895;53.240;6.572;2023-12-07T02:22:35;2.80;99.90
51855;DHT22;37895;53.240;6.572;2023-12-07T02:27:44;2.80;99.90
51855;DHT22;37895;53.240;6.572;2023-12-07T02:30:13;2.80;99.90
51855;DHT22;37895;53.240;6.572;2023-12-07T02:32:39;2.70;99.90
51855;DHT22;37895;53.240;6.572;2023-12-07T02:35:07;2.70;99.90
51855;DHT22;37895;53.240;6.572;2023-12-07T02:37:37;2.70;99.90
51855;DHT22;37895;53.240;6.572;2023-12-07T02:40:06;2.80;99.90
51855;DHT22;37895;53.240;6.572;2023-12-07T02:42:39;2.80;99.90
51855;DHT22;37895;53.240;6.572;2023-12-07T02:45:09;2.80;99.90
51855;DHT22;37895;53.240;6.572;2023-12-07T02:47:35;2.80;99.90
51855;DHT22;37895;53.240;6.572;2023-12-07T02:50:05;2.70;99.90
51855;DHT22;37895;53.240;6.572;2023-12-07T02:52:31;2.80;99.90
51855;DHT22;37895;53.240;6.572;2023-12-07T02:54:57;3.20;99.90
51855;DHT22;37895;53.240;6.572;2023-12-07T02:57:23;3.20;99.90
51855;DHT22;37895;53.240;6.572;2023-12-07T02:59:49;2.90;99.90
51855;DHT22;37895;53.240;6.572;2023-12-07T03:02:14;2.80;99.90
51855;DHT22;37895;53.240;6.572;2023-12-07T03:04:40;2.90;99.90
51855;DHT22;37895;53.240;6.572;2023-12-07T03:07:05;2.80;99.90
51855;DHT22;37895;53.240;6.572;2023-12-07T03:09:31;2.80;99.90
51855;DHT22;37895;53.240;6.572;2023-12-07T03:11:57;2.80;99.90
51855;DHT22;37895;53.240;6.572;2023-12-07T03:14:22;2.80;99.90
51855;DHT22;37895;53.240;6.572;2023-12-07T03:16:48;2.80;99.90
51855;DHT22;37895;53.240;6.572;2023-12-07T03:19:14;2.80;99.90
51855;DHT22;37895;53.240;6.572;2023-12-07T03:21:40;2.80;99.90
51855;DHT22;37895;53.240;6.572;2023-12-07T03:24:07;3.50;99.90
51855;DHT22;37895;53.240;6.572;2023-12-07T03:26:39;2.70;99.90
51855;DHT22;37895;53.240;6.572;2023-12-07T03:29:05;2.70;99.90
51855;DHT22;37895;53.240;6.572;2023-12-07T03:31:31;2.70;99.90
51855;DHT22;37895;53.240;6.572;2023-12-07T03:33:56;2.70;99.90
51855;DHT22;37895;53.240;6.572;2023-12-07T03:36:22;2.70;99.90
51855;DHT22;37895;53.240;6.572;2023-12-07T03:38:49;2.90;99.90
51855;DHT22;37895;53.240;6.572;2023-12-07T03:41:14;2.70;99.90
51855;DHT22;37895;53.240;6.572;2023-12-07T03:43:40;3.10;99.90
51855;DHT22;37895;53.240;6.572;2023-12-07T03:46:06;2.70;99.90
51855;DHT22;37895;53.240;6.572;2023-12-07T03:48:33;2.70;99.90
51855;DHT22;37895;53.240;6.572;2023-12-07T03:50:58;2.80;99.90
51855;DHT22;37895;53.240;6.572;2023-12-07T03:53:24;2.70;99.90
51855;DHT22;37895;53.240;6.572;2023-12-07T03:55:50;2.70;99.90
51855;DHT22;37895;53.240;6.572;2023-12-07T03:58:15;2.70;99.90
51855;DHT22;37895;53.240;6.572;2023-12-07T04:00:41;2.70;99.90
51855;DHT22;37895;53.240;6.572;2023-12-07T04:03:07;2.70;99.90
51855;DHT22;37895;53.240;6.572;2023-12-07T04:05:33;2.70;99.90
51855;DHT22;37895;53.240;6.572;2023-12-07T04:07:59;2.70;99.90
51855;DHT22;37895;53.240;6.572;2023-12-07T04:10:25;2.70;99.90
51855;DHT22;37895;53.240;6.572;2023-12-07T04:12:50;2.70;99.90
51855;DHT22;37895;53.240;6.572;2023-12-07T04:15:18;2.80;99.90
51855;DHT22;37895;53.240;6.572;2023-12-07T04:17:44;2.80;99.90
51855;DHT22;37895;53.240;6.572;2023-12-07T04:20:10;2.80;99.90
51855;DHT22;37895;53.240;6.572;2023-12-07T04:22:36;2.80;99.90
51855;DHT22;37895;53.240;6.572;2023-12-07T04:25:02;2.90;99.90
51855;DHT22;37895;53.240;6.572;2023-12-07T04:27:27;2.80;99.90
51855;DHT22;37895;53.240;6.572;2023-12-07T04:29:53;2.80;99.90
51855;DHT22;37895;53.240;6.572;2023-12-07T04:32:19;2.80;99.90
51855;DHT22;37895;53.240;6.572;2023-12-07T04:34:44;2.90;99.90
51855;DHT22;37895;53.240;6.572;2023-12-07T04:37:10;2.80;99.90
51855;DHT22;37895;53.240;6.572;2023-12-07T04:39:36;2.80;99.90
51855;DHT22;37895;53.240;6.572;2023-12-07T04:42:02;2.90;99.90
51855;DHT22;37895;53.240;6.572;2023-12-07T04:44:27;2.90;99.90
51855;DHT22;37895;53.240;6.572;2023-12-07T04:46:53;2.90;99.90
51855;DHT22;37895;53.240;6.572;2023-12-07T04:49:19;2.90;99.90
51855;DHT22;37895;53.240;6.572;2023-12-07T04:51:45;2.90;99.90
51855;DHT22;37895;53.240;6.572;2023-12-07T04:54:12;2.90;99.90
51855;DHT22;37895;53.240;6.572;2023-12-07T04:56:40;2.90;99.90
51855;DHT22;37895;53.240;6.572;2023-12-07T04:59:06;3.10;99.90
51855;DHT22;37895;53.240;6.572;2023-12-07T05:01:32;2.90;99.90
51855;DHT22;37895;53.240;6.572;2023-12-07T05:03:57;2.80;99.90
51855;DHT22;37895;53.240;6.572;2023-12-07T05:06:23;2.80;99.90
51855;DHT22;37895;53.240;6.572;2023-12-07T05:08:48;2.80;99.90
51855;DHT22;37895;53.240;6.572;2023-12-07T05:11:14;2.80;99.90
51855;DHT22;37895;53.240;6.572;2023-12-07T05:13:40;2.80;99.90
51855;DHT22;37895;53.240;6.572;2023-12-07T05:16:05;2.80;99.90
51855;DHT22;37895;53.240;6.572;2023-12-07T05:18:31;2.80;99.90
51855;DHT22;37895;53.240;6.572;2023-12-07T05:20:57;2.80;99.90
51855;DHT22;37895;53.240;6.572;2023-12-07T05:23:22;2.70;99.90
51855;DHT22;37895;53.240;6.572;2023-12-07T05:25:48;3.40;99.90
51855;DHT22;37895;53.240;6.572;2023-12-07T05:28:14;2.70;99.90
51855;DHT22;37895;53.240;6.572;2023-12-07T05:30:39;2.60;99.90
51855;DHT22;37895;53.240;6.572;2023-12-07T05:33:05;3.40;99.90
51855;DHT22;37895;53.240;6.572;2023-12-07T05:35:31;2.60;99.90
51855;DHT22;37895;53.240;6.572;2023-12-07T05:37:56;2.80;99.90
51855;DHT22;37895;53.240;6.572;2023-12-07T05:40:23;2.60;99.90
51855;DHT22;37895;53.240;6.572;2023-12-07T05:42:50;2.70;99.90
51855;DHT22;37895;53.240;6.572;2023-12-07T05:45:16;3.30;99.90
51855;DHT22;37895;53.240;6.572;2023-12-07T05:47:42;2.60;99.90
51855;DHT22;37895;53.240;6.572;2023-12-07T05:50:07;3.50;99.90
51855;DHT22;37895;53.240;6.572;2023-12-07T05:52:33;2.60;99.90
51855;DHT22;37895;53.240;6.572;2023-12-07T05:54:59;2.60;99.90
51855;DHT22;37895;53.240;6.572;2023-12-07T05:57:24;2.60;99.90
51855;DHT22;37895;53.240;6.572;2023-12-07T05:59:50;2.60;99.90
51855;DHT22;37895;53.240;6.572;2023-12-07T06:02:16;3.40;99.90
51855;DHT22;37895;53.240;6.572;2023-12-07T06:04:42;2.90;99.90
51855;DHT22;37895;53.240;6.572;2023-12-07T06:07:07;2.50;99.90
51855;DHT22;37895;53.240;6.572;2023-12-07T06:09:33;2.90;99.90
51855;DHT22;37895;53.240;6.572;2023-12-07T06:11:59;2.60;99.90
51855;DHT22;37895;53.240;6.572;2023-12-07T06:14:25;2.40;99.90
51855;DHT22;37895;53.240;6.572;2023-12-07T06:16:50;2.40;99.90
51855;DHT22;37895;53.240;6.572;2023-12-07T06:19:16;2.50;99.90
51855;DHT22;37895;53.240;6.572;2023-12-07T06:21:43;2.50;99.90
51855;DHT22;37895;53.240;6.572;2023-12-07T06:24:09;2.50;99.90
51855;DHT22;37895;53.240;6.572;2023-12-07T06:26:35;2.50;99.90
51855;DHT22;37895;53.240;6.572;2023-12-07T06:29:01;2.50;99.90
51855;DHT22;37895;53.240;6.572;2023-12-07T06:31:27;2.50;99.90
51855;DHT22;37895;53.240;6.572;2023-12-07T06:33:53;2.90;99.90
51855;DHT22;37895;53.240;6.572;2023-12-07T06:36:22;3.00;99.90
51855;DHT22;37895;53.240;6.572;2023-12-07T06:38:49;2.50;99.90
51855;DHT22;37895;53.240;6.572;2023-12-07T06:41:15;3.30;99.90
51855;DHT22;37895;53.240;6.572;2023-12-07T06:43:44;2.40;99.90
51855;DHT22;37895;53.240;6.572;2023-12-07T06:46:14;2.40;99.90
51855;DHT22;37895;53.240;6.572;2023-12-07T06:48:40;2.70;99.90
51855;DHT22;37895;53.240;6.572;2023-12-07T06:51:06;2.60;99.90
51855;DHT22;37895;53.240;6.572;2023-12-07T06:53:32;2.40;99.90
51855;DHT22;37895;53.240;6.572;2023-12-07T06:55:57;2.40;99.90
51855;DHT22;37895;53.240;6.572;2023-12-07T06:58:23;2.40;99.90
51855;DHT22;37895;53.240;6.572;2023-12-07T07:00:49;2.40;99.90
51855;DHT22;37895;53.240;6.572;2023-12-07T07:03:15;2.50;99.90
51855;DHT22;37895;53.240;6.572;2023-12-07T07:05:41;2.60;99.90
51855;DHT22;37895;53.240;6.572;2023-12-07T07:08:07;2.60;99.90
51855;DHT22;37895;53.240;6.572;2023-12-07T07:10:35;2.50;99.90
51855;DHT22;37895;53.240;6.572;2023-12-07T07:13:02;2.50;99.90
51855;DHT22;37895;53.240;6.572;2023-12-07T07:18:51;2.60;99.90
51855;DHT22;37895;53.240;6.572;2023-12-07T07:23:52;2.50;99.90
51855;DHT22;37895;53.240;6.572;2023-12-07T07:26:18;2.60;99.90
51855;DHT22;37895;53.240;6.572;2023-12-07T07:28:44;2.60;99.90
51855;DHT22;37895;53.240;6.572;2023-12-07T07:31:09;2.60;99.90
51855;DHT22;37895;53.240;6.572;2023-12-07T07:33:35;2.60;99.90
51855;DHT22;37895;53.240;6.572;2023-12-07T07:36:01;2.60;99.90
51855;DHT22;37895;53.240;6.572;2023-12-07T07:38:26;2.60;99.90
51855;DHT22;37895;53.240;6.572;2023-12-07T07:40:52;2.60;99.90
51855;DHT22;37895;53.240;6.572;2023-12-07T07:43:17;2.80;99.90
51855;DHT22;37895;53.240;6.572;2023-12-07T07:45:43;2.70;99.90
51855;DHT22;37895;53.240;6.572;2023-12-07T07:48:09;3.40;99.90
51855;DHT22;37895;53.240;6.572;2023-12-07T07:50:35;2.70;99.90
51855;DHT22;37895;53.240;6.572;2023-12-07T07:53:02;2.70;99.90
51855;DHT22;37895;53.240;6.572;2023-12-07T07:55:29;2.70;99.90
51855;DHT22;37895;53.240;6.572;2023-12-07T07:57:54;2.70;99.90
51855;DHT22;37895;53.240;6.572;2023-12-07T08:00:20;2.70;99.90
51855;DHT22;37895;53.240;6.572;2023-12-07T08:02:46;2.70;99.90
51855;DHT22;37895;53.240;6.572;2023-12-07T08:05:12;2.70;99.90
51855;DHT22;37895;53.240;6.572;2023-12-07T08:07:39;2.80;99.90
51855;DHT22;37895;53.240;6.572;2023-12-07T08:10:05;2.80;99.90
51855;DHT22;37895;53.240;6.572;2023-12-07T08:12:33;2.80;99.90
51855;DHT22;37895;53.240;6.572;2023-12-07T08:14:58;2.80;99.90
51855;DHT22;37895;53.240;6.572;2023-12-07T08:17:24;2.80;99.90
51855;DHT22;37895;53.240;6.572;2023-12-07T08:19:51;2.80;99.90
51855;DHT22;37895;53.240;6.572;2023-12-07T08:22:17;2.80;99.90
51855;DHT22;37895;53.240;6.572;2023-12-07T08:24:43;3.40;99.90
51855;DHT22;37895;53.240;6.572;2023-12-07T08:27:08;2.80;99.90
51855;DHT22;37895;53.240;6.572;2023-12-07T08:29:34;2.90;99.90
51855;DHT22;37895;53.240;6.572;2023-12-07T08:32:00;2.90;99.90
51855;DHT22;37895;53.240;6.572;2023-12-07T08:34:26;3.40;99.90
51855;DHT22;37895;53.240;6.572;2023-12-07T08:36:51;2.90;99.90
51855;DHT22;37895;53.240;6.572;2023-12-07T08:39:17;3.00;99.90
51855;DHT22;37895;53.240;6.572;2023-12-07T08:41:42;2.90;99.90
51855;DHT22;37895;53.240;6.572;2023-12-07T08:44:08;3.00;99.90
51855;DHT22;37895;53.240;6.572;2023-12-07T08:46:34;3.00;99.90
51855;DHT22;37895;53.240;6.572;2023-12-07T08:49:00;2.90;99.90
51855;DHT22;37895;53.240;6.572;2023-12-07T08:51:25;3.80;99.90
51855;DHT22;37895;53.240;6.572;2023-12-07T08:53:51;2.80;99.90
51855;DHT22;37895;53.240;6.572;2023-12-07T08:56:18;2.80;99.90
51855;DHT22;37895;53.240;6.572;2023-12-07T08:58:43;2.70;99.90
51855;DHT22;37895;53.240;6.572;2023-12-07T09:01:09;2.70;99.90
51855;DHT22;37895;53.240;6.572;2023-12-07T09:03:37;2.70;99.90
51855;DHT22;37895;53.240;6.572;2023-12-07T09:06:03;2.70;99.90
51855;DHT22;37895;53.240;6.572;2023-12-07T09:08:28;2.80;99.90
51855;DHT22;37895;53.240;6.572;2023-12-07T09:10:54;2.80;99.90
51855;DHT22;37895;53.240;6.572;2023-12-07T09:13:20;2.90;99.90
51855;DHT22;37895;53.240;6.572;2023-12-07T09:15:45;3.00;99.90
51855;DHT22;37895;53.240;6.572;2023-12-07T09:18:11;3.10;99.90
51855;DHT22;37895;53.240;6.572;2023-12-07T09:20:37;3.10;99.90
51855;DHT22;37895;53.240;6.572;2023-12-07T09:23:03;3.20;99.90
51855;DHT22;37895;53.240;6.572;2023-12-07T09:25:30;3.20;99.90
51855;DHT22;37895;53.240;6.572;2023-12-07T09:27:56;3.40;99.90
51855;DHT22;37895;53.240;6.572;2023-12-07T09:30:22;3.20;99.90
51855;DHT22;37895;53.240;6.572;2023-12-07T09:32:47;3.30;99.90
51855;DHT22;37895;53.240;6.572;2023-12-07T09:35:13;3.70;99.90
51855;DHT22;37895;53.240;6.572;2023-12-07T09:37:46;3.20;99.90
51855;DHT22;37895;53.240;6.572;2023-12-07T09:40:15;3.20;99.90
51855;DHT22;37895;53.240;6.572;2023-12-07T09:42:43;3.20;99.90
51855;DHT22;37895;53.240;6.572;2023-12-07T09:45:10;3.30;99.90
51855;DHT22;37895;53.240;6.572;2023-12-07T09:47:37;3.30;99.90
51855;DHT22;37895;53.240;6.572;2023-12-07T09:50:05;3.30;99.90
51855;DHT22;37895;53.240;6.572;2023-12-07T09:52:31;3.40;99.90
51855;DHT22;37895;53.240;6.572;2023-12-07T09:54:57;3.30;99.90
51855;DHT22;37895;53.240;6.572;2023-12-07T09:57:23;3.30;99.90
51855;DHT22;37895;53.240;6.572;2023-12-07T09:59:48;3.40;99.90
51855;DHT22;37895;53.240;6.572;2023-12-07T10:02:14;3.50;99.90
51855;DHT22;37895;53.240;6.572;2023-12-07T10:04:40;3.40;99.90
51855;DHT22;37895;53.240;6.572;2023-12-07T10:07:05;3.40;99.90
51855;DHT22;37895;53.240;6.572;2023-12-07T10:09:40;3.50;99.90
51855;DHT22;37895;53.240;6.572;2023-12-07T10:12:06;3.40;99.90
51855;DHT22;37895;53.240;6.572;2023-12-07T10:14:33;3.40;99.90
51855;DHT22;37895;53.240;6.572;2023-12-07T10:17:00;3.60;99.90
51855;DHT22;37895;53.240;6.572;2023-12-07T10:19:26;3.50;99.90
51855;DHT22;37895;53.240;6.572;2023-12-07T10:21:53;3.50;99.90
51855;DHT22;37895;53.240;6.572;2023-12-07T10:24:24;3.50;99.90
51855;DHT22;37895;53.240;6.572;2023-12-07T10:26:51;3.50;99.90
51855;DHT22;37895;53.240;6.572;2023-12-07T10:29:20;3.50;99.90
51855;DHT22;37895;53.240;6.572;2023-12-07T10:31:46;3.50;99.90
51855;DHT22;37895;53.240;6.572;2023-12-07T10:34:17;3.50;99.90
51855;DHT22;37895;53.240;6.572;2023-12-07T10:36:46;3.60;99.90
51855;DHT22;37895;53.240;6.572;2023-12-07T10:39:12;3.60;99.90
51855;DHT22;37895;53.240;6.572;2023-12-07T10:41:38;3.60;99.90
51855;DHT22;37895;53.240;6.572;2023-12-07T10:44:06;3.60;99.90
51855;DHT22;37895;53.240;6.572;2023-12-07T10:46:33;3.70;99.90
51855;DHT22;37895;53.240;6.572;2023-12-07T10:49:08;3.90;99.90
51855;DHT22;37895;53.240;6.572;2023-12-07T10:52:03;3.80;99.90
51855;DHT22;37895;53.240;6.572;2023-12-07T10:54:41;3.80;99.90
51855;DHT22;37895;53.240;6.572;2023-12-07T10:57:08;3.80;99.90
51855;DHT22;37895;53.240;6.572;2023-12-07T10:59:35;3.80;99.90
51855;DHT22;37895;53.240;6.572;2023-12-07T11:02:02;3.80;99.90
51855;DHT22;37895;53.240;6.572;2023-12-07T11:04:29;3.90;99.90
51855;DHT22;37895;53.240;6.572;2023-12-07T11:06:59;4.00;99.90
51855;DHT22;37895;53.240;6.572;2023-12-07T11:09:31;4.70;99.90
51855;DHT22;37895;53.240;6.572;2023-12-07T11:12:32;4.30;99.90
51855;DHT22;37895;53.240;6.572;2023-12-07T11:14:59;4.00;99.90
51855;DHT22;37895;53.240;6.572;2023-12-07T11:17:26;4.10;99.90
51855;DHT22;37895;53.240;6.572;2023-12-07T11:19:52;4.10;99.90
51855;DHT22;37895;53.240;6.572;2023-12-07T11:22:18;4.00;99.90
51855;DHT22;37895;53.240;6.572;2023-12-07T11:24:55;4.00;99.90
51855;DHT22;37895;53.240;6.572;2023-12-07T11:27:24;4.10;99.90
51855;DHT22;37895;53.240;6.572;2023-12-07T11:29:50;4.10;99.90
51855;DHT22;37895;53.240;6.572;2023-12-07T11:32:16;4.10;99.90
51855;DHT22;37895;53.240;6.572;2023-12-07T11:34:43;4.00;99.90
51855;DHT22;37895;53.240;6.572;2023-12-07T11:37:10;4.10;99.90
51855;DHT22;37895;53.240;6.572;2023-12-07T11:39:37;4.20;99.90
51855;DHT22;37895;53.240;6.572;2023-12-07T11:42:22;4.20;99.90
51855;DHT22;37895;53.240;6.572;2023-12-07T11:44:48;4.20;99.90
51855;DHT22;37895;53.240;6.572;2023-12-07T11:47:19;4.30;99.90
51855;DHT22;37895;53.240;6.572;2023-12-07T11:49:46;4.20;99.90
51855;DHT22;37895;53.240;6.572;2023-12-07T11:52:12;4.30;99.90
51855;DHT22;37895;53.240;6.572;2023-12-07T11:54:38;4.20;99.90
51855;DHT22;37895;53.240;6.572;2023-12-07T11:57:04;4.30;99.90
51855;DHT22;37895;53.240;6.572;2023-12-07T11:59:31;4.30;99.90
51855;DHT22;37895;53.240;6.572;2023-12-07T12:02:00;4.30;99.90
51855;DHT22;37895;53.240;6.572;2023-12-07T12:04:28;4.40;99.90
51855;DHT22;37895;53.240;6.572;2023-12-07T12:06:54;4.40;99.90
51855;DHT22;37895;53.240;6.572;2023-12-07T12:09:19;4.50;99.90
51855;DHT22;37895;53.240;6.572;2023-12-07T12:11:46;4.50;99.90
51855;DHT22;37895;53.240;6.572;2023-12-07T12:14:14;4.50;99.90
51855;DHT22;37895;53.240;6.572;2023-12-07T12:16:40;4.60;99.90
51855;DHT22;37895;53.240;6.572;2023-12-07T12:19:06;4.70;99.90
51855;DHT22;37895;53.240;6.572;2023-12-07T12:21:36;4.60;99.90
51855;DHT22;37895;53.240;6.572;2023-12-07T12:24:07;4.60;99.90
51855;DHT22;37895;53.240;6.572;2023-12-07T12:26:35;4.60;99.90
51855;DHT22;37895;53.240;6.572;2023-12-07T12:29:02;4.60;99.90
51855;DHT22;37895;53.240;6.572;2023-12-07T12:31:28;5.30;99.90
51855;DHT22;37895;53.240;6.572;2023-12-07T12:33:55;5.00;99.90
51855;DHT22;37895;53.240;6.572;2023-12-07T12:36:21;4.00;99.90
51855;DHT22;37895;53.240;6.572;2023-12-07T12:38:52;4.60;99.90
51855;DHT22;37895;53.240;6.572;2023-12-07T12:41:19;4.70;99.90
51855;DHT22;37895;53.240;6.572;2023-12-07T12:43:44;4.60;99.90
51855;DHT22;37895;53.240;6.572;2023-12-07T12:46:11;4.60;99.90
51855;DHT22;37895;53.240;6.572;2023-12-07T12:48:37;4.60;99.90
51855;DHT22;37895;53.240;6.572;2023-12-07T12:51:12;4.50;99.90
51855;DHT22;37895;53.240;6.572;2023-12-07T12:53:45;4.50;99.90
51855;DHT22;37895;53.240;6.572;2023-12-07T12:56:12;4.50;99.90
51855;DHT22;37895;53.240;6.572;2023-12-07T12:58:38;4.50;99.90
51855;DHT22;37895;53.240;6.572;2023-12-07T13:01:04;4.40;99.90
51855;DHT22;37895;53.240;6.572;2023-12-07T13:03:29;4.30;99.90
51855;DHT22;37895;53.240;6.572;2023-12-07T13:05:55;5.00;99.90
51855;DHT22;37895;53.240;6.572;2023-12-07T13:08:20;4.00;99.90
51855;DHT22;37895;53.240;6.572;2023-12-07T13:10:46;3.90;99.90
51855;DHT22;37895;53.240;6.572;2023-12-07T13:13:12;3.90;99.90
51855;DHT22;37895;53.240;6.572;2023-12-07T13:15:37;3.80;99.90
51855;DHT22;37895;53.240;6.572;2023-12-07T13:18:03;3.80;99.90
51855;DHT22;37895;53.240;6.572;2023-12-07T13:20:31;3.70;99.90
51855;DHT22;37895;53.240;6.572;2023-12-07T13:22:56;3.60;99.90
51855;DHT22;37895;53.240;6.572;2023-12-07T13:25:22;3.60;99.90
51855;DHT22;37895;53.240;6.572;2023-12-07T13:27:47;3.60;99.90
51855;DHT22;37895;53.240;6.572;2023-12-07T13:30:13;3.60;99.90
51855;DHT22;37895;53.240;6.572;2023-12-07T13:32:39;3.50;99.90
51855;DHT22;37895;53.240;6.572;2023-12-07T13:35:06;3.40;99.90
51855;DHT22;37895;53.240;6.572;2023-12-07T13:37:33;3.40;99.90
51855;DHT22;37895;53.240;6.572;2023-12-07T13:39:59;3.50;99.90
51855;DHT22;37895;53.240;6.572;2023-12-07T13:42:25;3.30;99.90
51855;DHT22;37895;53.240;6.572;2023-12-07T13:44:55;3.30;99.90
51855;DHT22;37895;53.240;6.572;2023-12-07T13:47:24;3.20;99.90
51855;DHT22;37895;53.240;6.572;2023-12-07T13:49:55;3.20;99.90
51855;DHT22;37895;53.240;6.572;2023-12-07T13:52:22;3.10;99.90
51855;DHT22;37895;53.240;6.572;2023-12-07T13:54:47;3.20;99.90
51855;DHT22;37895;53.240;6.572;2023-12-07T13:57:14;3.10;99.90
51855;DHT22;37895;53.240;6.572;2023-12-07T13:59:40;3.80;99.90
51855;DHT22;37895;53.240;6.572;2023-12-07T14:02:06;3.50;99.90
51855;DHT22;37895;53.240;6.572;2023-12-07T14:04:32;2.90;99.90
51855;DHT22;37895;53.240;6.572;2023-12-07T14:07:17;2.90;99.90
51855;DHT22;37895;53.240;6.572;2023-12-07T14:09:45;2.90;99.90
51855;DHT22;37895;53.240;6.572;2023-12-07T14:12:11;2.80;99.90
51855;DHT22;37895;53.240;6.572;2023-12-07T14:14:39;2.70;99.90
51855;DHT22;37895;53.240;6.572;2023-12-07T14:17:05;2.70;99.90
51855;DHT22;37895;53.240;6.572;2023-12-07T14:19:31;2.60;99.90
51855;DHT22;37895;53.240;6.572;2023-12-07T14:21:56;2.60;99.90
51855;DHT22;37895;53.240;6.572;2023-12-07T14:24:23;3.20;99.90
51855;DHT22;37895;53.240;6.572;2023-12-07T14:26:49;2.50;99.90
51855;DHT22;37895;53.240;6.572;2023-12-07T14:29:14;2.50;99.90
51855;DHT22;37895;53.240;6.572;2023-12-07T14:31:44;2.50;99.90
51855;DHT22;37895;53.240;6.572;2023-12-07T14:34:10;2.50;99.90
51855;DHT22;37895;53.240;6.572;2023-12-07T14:36:35;2.50;99.90
51855;DHT22;37895;53.240;6.572;2023-12-07T14:39:04;2.50;99.90
51855;DHT22;37895;53.240;6.572;2023-12-07T14:41:32;2.50;99.90
51855;DHT22;37895;53.240;6.572;2023-12-07T14:43:58;2.50;99.90
51855;DHT22;37895;53.240;6.572;2023-12-07T14:46:23;2.50;99.90
51855;DHT22;37895;53.240;6.572;2023-12-07T14:48:49;3.40;99.90
51855;DHT22;37895;53.240;6.572;2023-12-07T14:51:18;2.60;99.90
51855;DHT22;37895;53.240;6.572;2023-12-07T14:53:46;3.20;99.90
51855;DHT22;37895;53.240;6.572;2023-12-07T14:56:12;2.40;99.90
51855;DHT22;37895;53.240;6.572;2023-12-07T14:58:37;2.60;99.90
51855;DHT22;37895;53.240;6.572;2023-12-07T15:01:05;2.40;99.90
51855;DHT22;37895;53.240;6.572;2023-12-07T15:03:31;2.40;99.90
51855;DHT22;37895;53.240;6.572;2023-12-07T15:05:57;2.50;99.90
51855;DHT22;37895;53.240;6.572;2023-12-07T15:08:22;2.40;99.90
51855;DHT22;37895;53.240;6.572;2023-12-07T15:10:48;2.40;99.90
51855;DHT22;37895;53.240;6.572;2023-12-07T15:13:17;2.40;99.90
51855;DHT22;37895;53.240;6.572;2023-12-07T15:15:43;2.40;99.90
51855;DHT22;37895;53.240;6.572;2023-12-07T15:18:09;2.40;99.90
51855;DHT22;37895;53.240;6.572;2023-12-07T15:20:35;2.30;99.90
51855;DHT22;37895;53.240;6.572;2023-12-07T15:23:01;2.40;99.90
51855;DHT22;37895;53.240;6.572;2023-12-07T15:25:27;2.40;99.90
51855;DHT22;37895;53.240;6.572;2023-12-07T15:27:54;2.40;99.90
51855;DHT22;37895;53.240;6.572;2023-12-07T15:30:20;2.40;99.90
51855;DHT22;37895;53.240;6.572;2023-12-07T15:32:49;2.40;99.90
51855;DHT22;37895;53.240;6.572;2023-12-07T15:35:15;2.40;99.90
51855;DHT22;37895;53.240;6.572;2023-12-07T15:37:42;2.40;99.90
51855;DHT22;37895;53.240;6.572;2023-12-07T15:40:07;2.40;99.90
51855;DHT22;37895;53.240;6.572;2023-12-07T15:42:37;2.40;99.90
51855;DHT22;37895;53.240;6.572;2023-12-07T15:45:04;2.40;99.90
51855;DHT22;37895;53.240;6.572;2023-12-07T15:47:30;2.40;99.90
51855;DHT22;37895;53.240;6.572;2023-12-07T15:49:56;2.50;99.90